Time;durP1;ratioP1;P1;durP2;ratioP2;P2;SDS_P1;SDS_P2;PMS_P1;PMS_P2;Temp;Humidity;BMP_temperature;BMP_pressure;BME280_temperature;BME280_humidity;BME280_pressure;Samples;Min_cycle;Max_cycle;Signal;HPM_P1;HPM_P2
2021/10/07 00:00:18;;;;;;;;;;;;;;;;;;5049078;28;20403;-61
2021/10/07 00:02:45;;;;;;;;;;;;;;;;;;5050175;28;19936;-62
2021/10/07 00:05:12;;;;;;;;;;;;;;;;;;5055413;28;19925;-62
2021/10/07 00:07:38;;;;;;;;;;;;;;;;;;5052584;28;19943;-62
2021/10/07 00:10:05;;;;;;;;;;;;;;;;;;5049732;28;19925;-61
2021/10/07 00:12:32;;;;;;;;;;;;;;;;;;5052761;28;20003;-63
2021/10/07 00:14:59;;;;;;;;;;;;;;;;;;5046796;28;20308;-63
2021/10/07 00:17:26;;;;;;;;;;;;;;;;;;5047933;28;20307;-62
2021/10/07 00:19:53;;;;;;;;;;;;;;;;;;5053173;28;19925;-62
2021/10/07 00:22:20;;;;;;;;;;;;;;;;;;5051697;28;19925;-62
2021/10/07 00:24:47;;;;;;;;;;;;;;;;;;5050545;28;19924;-62
2021/10/07 00:27:14;;;;;;;;;;;;;;;;;;5048475;28;19929;-62
2021/10/07 00:29:43;;;;;;;;;;;;;;;;;;5050998;28;20403;-63
2021/10/07 00:32:12;;;;;;;;;;;;;;;;;;5050368;28;19988;-62
2021/10/07 00:37:28;;;;;;;;;;;;;;;;;;5050000;28;19979;-63
2021/10/07 00:39:54;;;;;;;;;;;;;;;;;;5048294;28;20012;-61
2021/10/07 00:42:21;;;;;;;;;;;;;;;;;;5050956;28;20007;-63
2021/10/07 00:44:48;;;;;;;;;;;;;;;;;;5048021;28;19925;-62
2021/10/07 00:47:15;;;;;;;;;;;;;;;;;;5047700;28;19932;-63
2021/10/07 00:49:42;;;;;;;;;;;;;;;;;;5042993;28;19925;-63
2021/10/07 00:52:09;;;;;;;;;;;;;;;;;;5048714;28;19925;-63
2021/10/07 00:54:36;;;;;;;;;;;;;;;;;;5048785;28;19931;-62
2021/10/07 00:57:03;;;;;;;;;;;;;;;;;;5051839;28;19935;-63
2021/10/07 00:59:30;;;;;;;;;;;;;;;;;;5047504;28;19925;-62
2021/10/07 01:01:57;;;;;;;;;;;;;;;;;;5047281;28;19982;-63
2021/10/07 01:04:23;;;;;;;;;;;;;;;;;;5043831;28;19925;-62
2021/10/07 01:06:50;;;;;;;;;;;;;;;;;;5047155;28;19925;-62
2021/10/07 01:09:17;;;;;;;;;;;;;;;;;;5049921;28;19929;-61
2021/10/07 01:11:44;;;;;;;;;;;;;;;;;;5049670;28;19928;-62
2021/10/07 01:14:11;;;;;;;;;;;;;;;;;;5050318;28;19964;-63
2021/10/07 01:16:38;;;;;;;;;;;;;;;;;;5049084;28;19932;-63
2021/10/07 01:19:05;;;;;;;;;;;;;;;;;;5050922;28;20392;-62
2021/10/07 01:21:32;;;;;;;;;;;;;;;;;;5050068;28;19924;-62
2021/10/07 01:23:59;;;;;;;;;;;;;;;;;;5048097;28;20016;-60
2021/10/07 01:26:28;;;;;;;;;;;;;;;;;;5048253;28;19926;-62
2021/10/07 01:28:55;;;;;;;;;;;;;;;;;;5051412;28;19925;-63
2021/10/07 01:31:21;;;;;;;;;;;;;;;;;;5053482;28;19931;-62
2021/10/07 01:33:48;;;;;;;;;;;;;;;;;;5053447;28;19932;-63
2021/10/07 01:36:15;;;;;;;;;;;;;;;;;;5052929;28;19924;-61
2021/10/07 01:38:42;;;;;;;;;;;;;;;;;;5054894;28;19924;-61
2021/10/07 01:41:09;;;;;;;;;;;;;;;;;;5055196;28;20288;-61
2021/10/07 01:43:36;;;;;;;;;;;;;;;;;;5053908;28;19929;-62
2021/10/07 01:46:03;;;;;;;;;;;;;;;;;;5054639;28;19925;-63
2021/10/07 01:48:30;;;;;;;;;;;;;;;;;;5050745;28;19924;-62
2021/10/07 01:50:57;;;;;;;;;;;;;;;;;;5048528;28;19925;-63
2021/10/07 01:53:24;;;;;;;;;;;;;;;;;;5055534;28;19928;-62
2021/10/07 01:55:51;;;;;;;;;;;;;;;;;;5048988;28;20407;-63
2021/10/07 01:58:18;;;;;;;;;;;;;;;;;;5053393;28;20392;-63
2021/10/07 02:00:45;;;;;;;;;;;;;;;;;;5051063;28;19924;-63
2021/10/07 02:03:12;;;;;;;;;;;;;;;;;;5047709;28;19925;-61
2021/10/07 02:05:39;;;;;;;;;;;;;;;;;;5050770;28;19932;-61
2021/10/07 02:08:06;;;;;;;;;;;;;;;;;;5055469;28;19931;-60
2021/10/07 02:10:33;;;;;;;;;;;;;;;;;;5051724;28;19935;-61
2021/10/07 02:13:00;;;;;;;;;;;;;;;;;;5050214;28;19925;-61
2021/10/07 02:15:27;;;;;;;;;;;;;;;;;;5051177;28;19936;-61
2021/10/07 02:17:54;;;;;;;;;;;;;;;;;;5051820;28;19931;-61
2021/10/07 02:20:21;;;;;;;;;;;;;;;;;;5051596;28;19925;-61
2021/10/07 02:22:48;;;;;;;;;;;;;;;;;;5050929;28;19925;-61
2021/10/07 02:25:15;;;;;;;;;;;;;;;;;;5049542;28;19932;-61
2021/10/07 02:27:41;;;;;;;;;;;;;;;;;;5049427;28;19939;-61
2021/10/07 02:30:08;;;;;;;;;;;;;;;;;;5051198;28;19933;-61
2021/10/07 02:32:35;;;;;;;;;;;;;;;;;;5052621;28;20348;-61
2021/10/07 02:35:02;;;;;;;;;;;;;;;;;;5050972;28;19935;-63
2021/10/07 02:37:29;;;;;;;;;;;;;;;;;;5051517;28;20411;-61
2021/10/07 02:39:56;;;;;;;;;;;;;;;;;;5051379;28;20393;-61
2021/10/07 02:42:23;;;;;;;;;;;;;;;;;;5050385;28;19932;-61
2021/10/07 02:44:50;;;;;;;;;;;;;;;;;;5048053;28;19925;-61
2021/10/07 02:47:17;;;;;;;;;;;;;;;;;;5048132;28;19999;-61
2021/10/07 02:49:44;;;;;;;;;;;;;;;;;;5051272;28;19925;-62
2021/10/07 02:52:11;;;;;;;;;;;;;;;;;;5049491;28;19933;-61
2021/10/07 02:54:38;;;;;;;;;;;;;;;;;;5049984;28;19925;-61
2021/10/07 02:57:05;;;;;;;;;;;;;;;;;;5051557;28;19929;-62
2021/10/07 02:59:32;;;;;;;;;;;;;;;;;;5051550;28;19931;-61
2021/10/07 03:01:59;;;;;;;;;;;;;;;;;;5053411;28;20301;-61
2021/10/07 03:04:26;;;;;;;;;;;;;;;;;;5045527;28;20412;-60
2021/10/07 03:06:53;;;;;;;;;;;;;;;;;;5053099;28;20011;-61
2021/10/07 03:09:20;;;;;;;;;;;;;;;;;;5049027;28;19925;-62
2021/10/07 03:11:46;;;;;;;;;;;;;;;;;;5054618;28;19925;-61
2021/10/07 03:14:13;;;;;;;;;;;;;;;;;;5051588;28;19937;-62
2021/10/07 03:16:40;;;;;;;;;;;;;;;;;;5055521;28;19931;-61
2021/10/07 03:19:09;;;;;;;;;;;;;;;;;;5053925;28;19944;-62
2021/10/07 03:21:36;;;;;;;;;;;;;;;;;;5051889;28;19932;-61
2021/10/07 03:24:03;;;;;;;;;;;;;;;;;;5047064;28;19925;-67
2021/10/07 03:26:30;;;;;;;;;;;;;;;;;;5053593;28;19925;-63
2021/10/07 03:28:57;;;;;;;;;;;;;;;;;;5051214;28;20294;-61
2021/10/07 03:31:24;;;;;;;;;;;;;;;;;;5052782;28;19925;-62
2021/10/07 03:33:51;;;;;;;;;;;;;;;;;;5051019;28;20011;-63
2021/10/07 03:36:18;;;;;;;;;;;;;;;;;;5048634;28;20380;-62
2021/10/07 03:38:45;;;;;;;;;;;;;;;;;;5049674;28;19947;-62
2021/10/07 03:41:12;;;;;;;;;;;;;;;;;;5048992;28;19932;-62
2021/10/07 03:43:39;;;;;;;;;;;;;;;;;;5060795;22;19924;-66
2021/10/07 03:46:06;;;;;;;;;;;;;;;;;;5054925;28;19928;-66
2021/10/07 03:48:33;;;;;;;;;;;;;;;;;;5049380;28;19925;-66
2021/10/07 03:51:00;;;;;;;;;;;;;;;;;;5053177;28;19924;-66
2021/10/07 03:53:27;;;;;;;;;;;;;;;;;;5045404;28;19924;-66
2021/10/07 03:55:54;;;;;;;;;;;;;;;;;;5044823;28;20403;-66
2021/10/07 03:58:21;;;;;;;;;;;;;;;;;;5043430;28;19935;-66
2021/10/07 04:00:48;;;;;;;;;;;;;;;;;;5047074;28;20011;-66
2021/10/07 04:03:15;;;;;;;;;;;;;;;;;;5043569;28;19959;-66
2021/10/07 04:05:42;;;;;;;;;;;;;;;;;;5045673;28;20297;-66
2021/10/07 04:08:09;;;;;;;;;;;;;;;;;;5049759;28;20004;-66
2021/10/07 04:10:36;;;;;;;;;;;;;;;;;;5045169;28;19955;-66
2021/10/07 04:13:03;;;;;;;;;;;;;;;;;;5044784;28;19929;-66
2021/10/07 04:15:30;;;;;;;;;;;;;;;;;;5046550;28;19932;-66
2021/10/07 04:17:57;;;;;;;;;;;;;;;;;;5044712;28;20024;-66
2021/10/07 04:20:24;;;;;;;;;;;;;;;;;;5048374;28;19925;-67
2021/10/07 04:22:51;;;;;;;;;;;;;;;;;;5047929;28;19936;-67
2021/10/07 04:25:18;;;;;;;;;;;;;;;;;;5048185;28;19935;-66
2021/10/07 04:27:45;;;;;;;;;;;;;;;;;;5044422;28;19932;-66
2021/10/07 04:30:12;;;;;;;;;;;;;;;;;;5046919;28;19945;-67
2021/10/07 04:32:39;;;;;;;;;;;;;;;;;;5046767;28;19925;-67
2021/10/07 04:35:06;;;;;;;;;;;;;;;;;;5046187;28;19933;-67
2021/10/07 04:37:33;;;;;;;;;;;;;;;;;;5044052;28;19931;-67
2021/10/07 04:40:00;;;;;;;;;;;;;;;;;;5043282;28;19925;-66
2021/10/07 04:42:27;;;;;;;;;;;;;;;;;;5045229;28;20035;-66
2021/10/07 04:44:54;;;;;;;;;;;;;;;;;;5044510;28;19925;-66
2021/10/07 04:47:21;;;;;;;;;;;;;;;;;;5045147;28;20416;-66
2021/10/07 04:49:48;;;;;;;;;;;;;;;;;;5047943;28;20015;-67
2021/10/07 04:52:14;;;;;;;;;;;;;;;;;;5044231;28;19947;-69
2021/10/07 04:54:41;;;;;;;;;;;;;;;;;;5047092;28;19925;-66
2021/10/07 04:57:08;;;;;;;;;;;;;;;;;;5047707;28;19924;-66
2021/10/07 04:59:35;;;;;;;;;;;;;;;;;;5044615;28;19935;-66
2021/10/07 05:02:02;;;;;;;;;;;;;;;;;;5045144;28;19929;-66
2021/10/07 05:04:29;;;;;;;;;;;;;;;;;;5051682;28;20012;-66
2021/10/07 05:06:56;;;;;;;;;;;;;;;;;;5051744;28;19925;-66
2021/10/07 05:09:24;;;;;;;;;;;;;;;;;;5051038;28;19932;-66
2021/10/07 05:11:51;;;;;;;;;;;;;;;;;;5043096;28;20020;-66
2021/10/07 05:14:18;;;;;;;;;;;;;;;;;;5048013;28;19933;-66
2021/10/07 05:16:45;;;;;;;;;;;;;;;;;;5043732;28;19933;-66
2021/10/07 05:19:12;;;;;;;;;;;;;;;;;;5047011;28;19932;-66
2021/10/07 05:21:39;;;;;;;;;;;;;;;;;;5048041;28;19924;-65
2021/10/07 05:24:06;;;;;;;;;;;;;;;;;;5044454;28;20395;-64
2021/10/07 05:26:33;;;;;;;;;;;;;;;;;;5050313;28;19971;-65
2021/10/07 05:29:01;;;;;;;;;;;;;;;;;;5047618;28;20419;-66
2021/10/07 05:31:29;;;;;;;;;;;;;;;;;;5041195;28;20440;-66
2021/10/07 05:33:58;;;;;;;;;;;;;;;;;;5046816;28;20384;-65
2021/10/07 05:36:25;;;;;;;;;;;;;;;;;;5051573;28;19925;-65
2021/10/07 05:38:53;;;;;;;;;;;;;;;;;;5045228;28;19935;-65
2021/10/07 05:41:20;;;;;;;;;;;;;;;;;;5049727;28;20289;-65
2021/10/07 05:43:47;;;;;;;;;;;;;;;;;;5047716;28;19932;-65
2021/10/07 05:46:14;;;;;;;;;;;;;;;;;;5047401;28;19948;-66
2021/10/07 05:48:41;;;;;;;;;;;;;;;;;;5047549;28;20419;-64
2021/10/07 05:51:08;;;;;;;;;;;;;;;;;;5047720;28;20004;-64
2021/10/07 05:53:35;;;;;;;;;;;;;;;;;;5051222;28;19924;-64
2021/10/07 05:56:04;;;;;;;;;;;;;;;;;;5045852;28;19928;-64
2021/10/07 05:58:31;;;;;;;;;;;;;;;;;;5049680;28;19932;-64
2021/10/07 06:00:58;;;;;;;;;;;;;;;;;;5049567;28;19924;-65
2021/10/07 06:03:25;;;;;;;;;;;;;;;;;;5051137;28;19935;-65
2021/10/07 06:05:52;;;;;;;;;;;;;;;;;;5048686;28;19935;-65
2021/10/07 06:08:19;;;;;;;;;;;;;;;;;;5048722;28;19932;-66
2021/10/07 06:10:46;;;;;;;;;;;;;;;;;;5044987;28;19936;-66
2021/10/07 06:13:13;;;;;;;;;;;;;;;;;;5045771;28;19929;-65
2021/10/07 06:15:40;;;;;;;;;;;;;;;;;;5045305;28;19931;-65
2021/10/07 06:18:07;;;;;;;;;;;;;;;;;;5048364;28;19952;-65
2021/10/07 06:20:34;;;;;;;;;;;;;;;;;;5045582;28;19931;-65
2021/10/07 06:23:03;;;;;;;;;;;;;;;;;;5048534;28;19944;-65
2021/10/07 06:25:30;;;;;;;;;;;;;;;;;;5042633;28;19933;-65
2021/10/07 06:27:57;;;;;;;;;;;;;;;;;;5046656;28;19925;-65
2021/10/07 06:30:24;;;;;;;;;;;;;;;;;;5048730;28;19932;-65
2021/10/07 06:32:51;;;;;;;;;;;;;;;;;;5049966;28;19925;-66
2021/10/07 06:35:18;;;;;;;;;;;;;;;;;;5045936;28;20385;-65
2021/10/07 06:37:45;;;;;;;;;;;;;;;;;;5043686;28;20446;-65
2021/10/07 06:40:12;;;;;;;;;;;;;;;;;;5046129;28;19935;-64
2021/10/07 06:42:39;;;;;;;;;;;;;;;;;;5047466;28;19925;-65
2021/10/07 06:45:06;;;;;;;;;;;;;;;;;;5043418;28;20304;-65
2021/10/07 06:47:33;;;;;;;;;;;;;;;;;;5043910;28;20366;-65
2021/10/07 06:50:00;;;;;;;;;;;;;;;;;;5038971;28;19925;-67
2021/10/07 06:52:27;;;;;;;;;;;;;;;;;;5049059;28;19924;-66
2021/10/07 06:54:54;;;;;;;;;;;;;;;;;;5048370;28;19925;-66
2021/10/07 06:57:21;;;;;;;;;;;;;;;;;;5048627;28;19925;-67
2021/10/07 06:59:48;;;;;;;;;;;;;;;;;;5041214;28;19931;-67
2021/10/07 07:02:15;;;;;;;;;;;;;;;;;;5048587;28;19936;-66
2021/10/07 07:04:42;;;;;;;;;;;;;;;;;;5041890;28;19932;-64
2021/10/07 07:07:09;;;;;;;;;;;;;;;;;;5044881;28;19924;-66
2021/10/07 07:09:36;;;;;;;;;;;;;;;;;;5047740;28;19939;-66
2021/10/07 07:12:02;;;;;;;;;;;;;;;;;;5043078;28;19929;-65
2021/10/07 07:14:29;;;;;;;;;;;;;;;;;;5041606;28;19933;-65
2021/10/07 07:16:56;;;;;;;;;;;;;;;;;;5046232;28;19937;-65
2021/10/07 07:19:23;;;;;;;;;;;;;;;;;;5032238;28;20412;-65
2021/10/07 07:21:50;;;;;;;;;;;;;;;;;;5043321;28;19932;-65
2021/10/07 07:24:17;;;;;;;;;;;;;;;;;;5047302;28;19924;-65
2021/10/07 07:26:44;;;;;;;;;;;;;;;;;;5039141;28;19947;-65
2021/10/07 07:29:11;;;;;;;;;;;;;;;;;;5042533;28;20479;-66
2021/10/07 07:31:38;;;;;;;;;;;;;;;;;;5044914;28;19973;-66
2021/10/07 07:34:05;;;;;;;;;;;;;;;;;;5042284;28;20035;-65
2021/10/07 07:36:32;;;;;;;;;;;;;;;;;;5048290;28;19929;-65
2021/10/07 07:38:59;;;;;;;;;;;;;;;;;;5043407;28;19929;-65
2021/10/07 07:41:29;;;;;;;;;;;;;;;;;;5047192;28;19932;-65
2021/10/07 07:43:56;;;;;;;;;;;;;;;;;;5044705;28;19925;-65
2021/10/07 07:46:22;;;;;;;;;;;;;;;;;;5041069;28;19932;-66
2021/10/07 07:48:49;;;;;;;;;;;;;;;;;;5041020;28;19940;-65
2021/10/07 07:51:16;;;;;;;;;;;;;;;;;;5044429;28;20115;-65
2021/10/07 07:53:43;;;;;;;;;;;;;;;;;;5047046;28;20305;-65
2021/10/07 07:56:10;;;;;;;;;;;;;;;;;;5049884;28;19925;-65
2021/10/07 07:58:37;;;;;;;;;;;;;;;;;;5043030;28;19925;-65
2021/10/07 08:01:04;;;;;;;;;;;;;;;;;;5046681;28;19932;-66
2021/10/07 08:03:32;;;;;;;;;;;;;;;;;;5044987;28;20296;-65
2021/10/07 08:05:59;;;;;;;;;;;;;;;;;;5043026;28;19983;-66
2021/10/07 08:08:26;;;;;;;;;;;;;;;;;;5046231;28;19925;-66
2021/10/07 08:10:53;;;;;;;;;;;;;;;;;;5043255;28;19933;-66
2021/10/07 08:13:20;;;;;;;;;;;;;;;;;;5041762;28;20011;-67
2021/10/07 08:15:47;;;;;;;;;;;;;;;;;;5046385;28;19935;-66
2021/10/07 08:18:15;;;;;;;;;;;;;;;;;;5041902;28;19931;-66
2021/10/07 08:20:42;;;;;;;;;;;;;;;;;;5043089;28;19936;-66
2021/10/07 08:23:12;;;;;;;;;;;;;;;;;;5047003;28;19925;-66
2021/10/07 08:25:39;;;;;;;;;;;;;;;;;;5040829;28;19932;-66
2021/10/07 08:28:06;;;;;;;;;;;;;;;;;;5034809;28;19968;-66
2021/10/07 08:30:33;;;;;;;;;;;;;;;;;;5040801;28;19926;-65
2021/10/07 08:33:00;;;;;;;;;;;;;;;;;;5042958;28;20291;-66
2021/10/07 08:35:27;;;;;;;;;;;;;;;;;;5045753;28;19932;-66
2021/10/07 08:37:54;;;;;;;;;;;;;;;;;;5046132;28;19968;-65
2021/10/07 08:40:21;;;;;;;;;;;;;;;;;;5044886;28;19931;-65
2021/10/07 08:42:48;;;;;;;;;;;;;;;;;;5045249;28;20403;-65
2021/10/07 08:45:15;;;;;;;;;;;;;;;;;;5043039;28;19932;-65
2021/10/07 08:47:42;;;;;;;;;;;;;;;;;;5043873;28;19928;-66
2021/10/07 08:50:09;;;;;;;;;;;;;;;;;;5048574;28;19932;-66
2021/10/07 08:52:36;;;;;;;;;;;;;;;;;;5046786;28;19932;-65
2021/10/07 08:55:03;;;;;;;;;;;;;;;;;;5047769;28;19928;-65
2021/10/07 08:57:30;;;;;;;;;;;;;;;;;;5045241;28;19925;-66
2021/10/07 08:59:57;;;;;;;;;;;;;;;;;;5043871;28;19925;-66
2021/10/07 09:02:24;;;;;;;;;;;;;;;;;;5044153;28;19943;-66
2021/10/07 09:04:52;;;;;;;;;;;;;;;;;;5043778;28;20401;-65
2021/10/07 09:07:19;;;;;;;;;;;;;;;;;;5041263;28;19978;-66
2021/10/07 09:09:46;;;;;;;;;;;;;;;;;;5044267;28;19929;-66
2021/10/07 09:12:13;;;;;;;;;;;;;;;;;;5046173;28;19936;-66
2021/10/07 09:14:40;;;;;;;;;;;;;;;;;;5040073;28;19935;-66
2021/10/07 09:17:07;;;;;;;;;;;;;;;;;;5036817;28;19924;-66
2021/10/07 09:19:35;;;;;;;;;;;;;;;;;;5043290;28;19951;-66
2021/10/07 09:22:02;;;;;;;;;;;;;;;;;;5044345;28;20027;-66
2021/10/07 09:24:29;;;;;;;;;;;;;;;;;;5042818;28;20292;-66
2021/10/07 09:27:01;;;;;;;;;;;;;;;;;;5043369;28;19935;-67
2021/10/07 09:29:28;;;;;;;;;;;;;;;;;;5033242;28;19932;-65
2021/10/07 09:31:55;;;;;;;;;;;;;;;;;;5036650;28;19928;-67
2021/10/07 09:34:22;;;;;;;;;;;;;;;;;;5043088;28;19964;-66
2021/10/07 09:36:50;;;;;;;;;;;;;;;;;;5044565;28;19924;-64
2021/10/07 09:39:17;;;;;;;;;;;;;;;;;;5044559;28;19940;-64
2021/10/07 09:41:44;;;;;;;;;;;;;;;;;;5045982;28;19925;-65
2021/10/07 09:44:11;;;;;;;;;;;;;;;;;;5060341;22;20019;-67
2021/10/07 09:46:37;;;;;;;;;;;;;;;;;;5043201;28;20415;-64
2021/10/07 09:49:04;;;;;;;;;;;;;;;;;;5046947;28;20320;-62
2021/10/07 09:51:31;;;;;;;;;;;;;;;;;;5047314;28;19928;-63
2021/10/07 09:53:58;;;;;;;;;;;;;;;;;;5047099;28;19932;-63
2021/10/07 09:56:25;;;;;;;;;;;;;;;;;;5049580;28;19925;-63
2021/10/07 09:58:52;;;;;;;;;;;;;;;;;;5051113;28;19924;-64
2021/10/07 10:01:19;;;;;;;;;;;;;;;;;;5048806;28;19943;-64
2021/10/07 10:03:46;;;;;;;;;;;;;;;;;;5046609;28;19936;-63
2021/10/07 10:06:13;;;;;;;;;;;;;;;;;;5046109;28;20381;-64
2021/10/07 10:08:40;;;;;;;;;;;;;;;;;;5046884;28;19948;-63
2021/10/07 10:11:07;;;;;;;;;;;;;;;;;;5044023;28;19925;-62
2021/10/07 10:13:34;;;;;;;;;;;;;;;;;;5047865;28;19929;-64
2021/10/07 10:16:01;;;;;;;;;;;;;;;;;;5048167;28;19929;-61
2021/10/07 10:18:28;;;;;;;;;;;;;;;;;;5047196;28;19947;-62
2021/10/07 10:20:55;;;;;;;;;;;;;;;;;;5043979;28;19925;-62
2021/10/07 10:23:22;;;;;;;;;;;;;;;;;;5046056;28;19924;-63
2021/10/07 10:25:49;;;;;;;;;;;;;;;;;;5045770;28;20321;-63
2021/10/07 10:28:16;;;;;;;;;;;;;;;;;;5047014;28;20024;-63
2021/10/07 10:30:46;;;;;;;;;;;;;;;;;;5042508;28;19932;-62
2021/10/07 10:33:13;;;;;;;;;;;;;;;;;;5045072;28;19968;-62
2021/10/07 10:35:40;;;;;;;;;;;;;;;;;;5046278;28;19925;-62
2021/10/07 10:38:07;;;;;;;;;;;;;;;;;;5044689;28;20384;-62
2021/10/07 10:40:33;;;;;;;;;;;;;;;;;;5042447;28;19947;-62
2021/10/07 10:43:00;;;;;;;;;;;;;;;;;;5046437;28;20015;-63
2021/10/07 10:45:27;;;;;;;;;;;;;;;;;;5045548;28;19932;-63
2021/10/07 10:47:54;;;;;;;;;;;;;;;;;;5043977;28;20285;-63
2021/10/07 10:50:21;;;;;;;;;;;;;;;;;;5048910;28;19925;-63
2021/10/07 10:52:52;;;;;;;;;;;;;;;;;;5046658;28;19925;-63
2021/10/07 10:55:19;;;;;;;;;;;;;;;;;;5046660;28;19936;-63
2021/10/07 10:57:46;;;;;;;;;;;;;;;;;;5049116;28;19925;-63
2021/10/07 11:00:13;;;;;;;;;;;;;;;;;;5043475;28;20320;-63
2021/10/07 11:02:40;;;;;;;;;;;;;;;;;;5040384;28;20389;-63
2021/10/07 11:05:07;;;;;;;;;;;;;;;;;;5043139;28;19925;-63
2021/10/07 11:07:35;;;;;;;;;;;;;;;;;;5046490;28;19980;-63
2021/10/07 11:10:02;;;;;;;;;;;;;;;;;;5047312;28;20007;-63
2021/10/07 11:12:29;;;;;;;;;;;;;;;;;;5043802;28;19925;-64
2021/10/07 11:14:56;;;;;;;;;;;;;;;;;;5050014;28;19928;-63
2021/10/07 11:17:25;;;;;;;;;;;;;;;;;;5045409;28;20313;-64
2021/10/07 11:19:52;;;;;;;;;;;;;;;;;;5046021;28;20297;-63
2021/10/07 11:22:19;;;;;;;;;;;;;;;;;;5043813;28;19932;-62
2021/10/07 11:24:46;;;;;;;;;;;;;;;;;;5046627;28;19924;-64
2021/10/07 11:27:13;;;;;;;;;;;;;;;;;;5045715;28;20411;-63
2021/10/07 11:29:40;;;;;;;;;;;;;;;;;;5041602;28;19932;-63
2021/10/07 11:32:07;;;;;;;;;;;;;;;;;;5041301;28;19947;-63
2021/10/07 11:34:34;;;;;;;;;;;;;;;;;;5042236;28;19925;-63
2021/10/07 11:37:01;;;;;;;;;;;;;;;;;;5047180;28;19928;-64
2021/10/07 11:39:28;;;;;;;;;;;;;;;;;;5045207;28;20297;-61
2021/10/07 11:41:55;;;;;;;;;;;;;;;;;;5046707;28;19936;-61
2021/10/07 11:44:23;;;;;;;;;;;;;;;;;;5047328;28;20277;-62
2021/10/07 11:46:50;;;;;;;;;;;;;;;;;;5044087;28;19936;-63
2021/10/07 11:49:17;;;;;;;;;;;;;;;;;;5047275;28;20497;-63
2021/10/07 11:51:44;;;;;;;;;;;;;;;;;;5044189;28;19951;-62
2021/10/07 11:54:11;;;;;;;;;;;;;;;;;;5048200;28;20389;-62
2021/10/07 11:56:38;;;;;;;;;;;;;;;;;;5044814;28;20281;-61
2021/10/07 11:59:12;;;;;;;;;;;;;;;;;;5045181;28;19929;-63
2021/10/07 12:01:40;;;;;;;;;;;;;;;;;;5043110;28;19925;-61
2021/10/07 12:04:07;;;;;;;;;;;;;;;;;;5044460;28;19925;-62
2021/10/07 12:06:35;;;;;;;;;;;;;;;;;;5041613;28;19931;-61
2021/10/07 12:09:02;;;;;;;;;;;;;;;;;;5045416;28;20019;-62
2021/10/07 12:11:29;;;;;;;;;;;;;;;;;;5045939;28;19924;-62
2021/10/07 12:13:55;;;;;;;;;;;;;;;;;;5046721;28;19929;-62
2021/10/07 12:16:22;;;;;;;;;;;;;;;;;;5046259;28;20297;-62
2021/10/07 12:18:50;;;;;;;;;;;;;;;;;;5045982;28;19933;-62
2021/10/07 12:21:17;;;;;;;;;;;;;;;;;;5044962;28;19929;-61
2021/10/07 12:23:44;;;;;;;;;;;;;;;;;;5045294;28;20011;-62
2021/10/07 12:26:11;;;;;;;;;;;;;;;;;;5048898;28;19932;-61
2021/10/07 12:28:38;;;;;;;;;;;;;;;;;;5043687;28;19999;-62
2021/10/07 12:31:05;;;;;;;;;;;;;;;;;;5039521;28;20382;-62
2021/10/07 12:33:32;;;;;;;;;;;;;;;;;;5040750;28;19925;-62
2021/10/07 12:35:58;;;;;;;;;;;;;;;;;;5046216;28;19935;-62
2021/10/07 12:38:25;;;;;;;;;;;;;;;;;;5037247;28;19939;-61
2021/10/07 12:40:52;;;;;;;;;;;;;;;;;;5039023;28;19929;-63
2021/10/07 12:43:19;;;;;;;;;;;;;;;;;;5046870;28;19931;-63
2021/10/07 12:45:46;;;;;;;;;;;;;;;;;;5044589;28;20305;-63
2021/10/07 12:48:13;;;;;;;;;;;;;;;;;;5044494;28;19925;-63
2021/10/07 12:50:40;;;;;;;;;;;;;;;;;;5043044;28;19925;-63
2021/10/07 12:53:07;;;;;;;;;;;;;;;;;;5042823;28;19925;-63
2021/10/07 12:55:37;;;;;;;;;;;;;;;;;;5049579;28;19925;-63
2021/10/07 12:58:04;;;;;;;;;;;;;;;;;;5045951;28;19925;-63
2021/10/07 13:00:33;;;;;;;;;;;;;;;;;;5044003;28;19983;-63
2021/10/07 13:03:00;;;;;;;;;;;;;;;;;;5046186;28;19947;-62
2021/10/07 13:05:27;;;;;;;;;;;;;;;;;;5047377;28;19933;-63
2021/10/07 13:07:54;;;;;;;;;;;;;;;;;;5044540;28;19928;-62
2021/10/07 13:10:21;;;;;;;;;;;;;;;;;;5047559;28;20407;-62
2021/10/07 13:12:48;;;;;;;;;;;;;;;;;;5042360;28;19931;-62
2021/10/07 13:15:15;;;;;;;;;;;;;;;;;;5040649;28;19928;-60
2021/10/07 13:17:44;;;;;;;;;;;;;;;;;;5046320;28;19931;-62
2021/10/07 13:20:10;;;;;;;;;;;;;;;;;;5044257;28;19983;-62
2021/10/07 13:22:37;;;;;;;;;;;;;;;;;;5045793;28;19924;-63
2021/10/07 13:25:04;;;;;;;;;;;;;;;;;;5051218;28;20016;-62
2021/10/07 13:27:32;;;;;;;;;;;;;;;;;;5048730;28;19929;-63
2021/10/07 13:29:59;;;;;;;;;;;;;;;;;;5046292;28;20017;-63
2021/10/07 13:32:26;;;;;;;;;;;;;;;;;;5041518;28;19925;-62
2021/10/07 13:34:53;;;;;;;;;;;;;;;;;;5042476;28;19947;-62
2021/10/07 13:37:21;;;;;;;;;;;;;;;;;;5048404;28;20406;-62
2021/10/07 13:39:48;;;;;;;;;;;;;;;;;;5041881;28;19929;-64
2021/10/07 13:42:14;;;;;;;;;;;;;;;;;;5047129;28;19939;-63
2021/10/07 13:44:41;;;;;;;;;;;;;;;;;;5044133;28;19929;-62
2021/10/07 13:47:08;;;;;;;;;;;;;;;;;;5045287;28;19924;-63
2021/10/07 13:49:35;;;;;;;;;;;;;;;;;;5047683;28;19925;-62
2021/10/07 13:52:02;;;;;;;;;;;;;;;;;;5046354;28;19935;-62
2021/10/07 13:54:29;;;;;;;;;;;;;;;;;;5048222;28;19931;-62
2021/10/07 13:56:56;;;;;;;;;;;;;;;;;;5045553;28;19924;-61
2021/10/07 13:59:23;;;;;;;;;;;;;;;;;;5046896;28;19925;-61
2021/10/07 14:01:50;;;;;;;;;;;;;;;;;;5044631;28;20423;-61
2021/10/07 14:04:17;;;;;;;;;;;;;;;;;;5046919;28;19932;-61
2021/10/07 14:06:44;;;;;;;;;;;;;;;;;;5044309;28;20428;-61
2021/10/07 14:09:11;;;;;;;;;;;;;;;;;;5046202;28;20365;-62
2021/10/07 14:11:38;;;;;;;;;;;;;;;;;;5044990;28;20157;-62
2021/10/07 14:14:05;;;;;;;;;;;;;;;;;;5043987;28;20095;-62
2021/10/07 14:16:32;;;;;;;;;;;;;;;;;;5043673;28;19924;-61
2021/10/07 14:18:59;;;;;;;;;;;;;;;;;;5047155;28;20312;-61
2021/10/07 14:21:26;;;;;;;;;;;;;;;;;;5040082;28;19932;-60
2021/10/07 14:23:53;;;;;;;;;;;;;;;;;;5045198;28;20465;-62
2021/10/07 14:26:20;;;;;;;;;;;;;;;;;;5044246;28;19933;-62
2021/10/07 14:28:47;;;;;;;;;;;;;;;;;;5045971;28;19940;-61
2021/10/07 14:31:14;;;;;;;;;;;;;;;;;;5046480;28;19924;-62
2021/10/07 14:33:41;;;;;;;;;;;;;;;;;;5040143;28;20657;-61
2021/10/07 14:36:08;;;;;;;;;;;;;;;;;;5045163;28;19950;-61
2021/10/07 14:38:35;;;;;;;;;;;;;;;;;;5042700;28;19935;-62
2021/10/07 14:41:02;;;;;;;;;;;;;;;;;;5031759;28;19932;-62
2021/10/07 14:43:30;;;;;;;;;;;;;;;;;;5035858;28;19925;-62
2021/10/07 14:45:59;;;;;;;;;;;;;;;;;;5036156;28;20595;-62
2021/10/07 14:48:26;;;;;;;;;;;;;;;;;;5034048;28;20530;-61
2021/10/07 14:50:53;;;;;;;;;;;;;;;;;;5042424;28;19925;-61
2021/10/07 14:53:20;;;;;;;;;;;;;;;;;;5038972;28;20292;-61
2021/10/07 14:55:47;;;;;;;;;;;;;;;;;;5041510;28;19932;-61
2021/10/07 14:58:14;;;;;;;;;;;;;;;;;;5046354;28;19935;-61
2021/10/07 15:00:42;;;;;;;;;;;;;;;;;;5046133;28;20315;-62
2021/10/07 15:03:09;;;;;;;;;;;;;;;;;;5047318;28;19931;-62
2021/10/07 15:05:37;;;;;;;;;;;;;;;;;;5044082;28;20393;-63
2021/10/07 15:08:04;;;;;;;;;;;;;;;;;;5042339;28;20297;-62
2021/10/07 15:10:31;;;;;;;;;;;;;;;;;;5043286;28;19948;-62
2021/10/07 15:13:00;;;;;;;;;;;;;;;;;;5041406;28;19933;-62
2021/10/07 15:15:27;;;;;;;;;;;;;;;;;;5031791;28;19932;-62
2021/10/07 15:17:54;;;;;;;;;;;;;;;;;;5038784;28;20243;-62
2021/10/07 15:20:27;;;;;;;;;;;;;;;;;;5038856;28;19931;-61
2021/10/07 15:22:54;;;;;;;;;;;;;;;;;;5041949;28;19924;-62
2021/10/07 15:25:21;;;;;;;;;;;;;;;;;;5039272;28;19936;-62
2021/10/07 15:27:48;;;;;;;;;;;;;;;;;;5036434;28;19936;-62
2021/10/07 15:30:15;;;;;;;;;;;;;;;;;;5034360;28;19924;-61
2021/10/07 15:32:42;;;;;;;;;;;;;;;;;;5040320;28;19935;-62
2021/10/07 15:35:09;;;;;;;;;;;;;;;;;;5033411;28;20411;-62
2021/10/07 15:37:36;;;;;;;;;;;;;;;;;;5044867;28;20431;-62
2021/10/07 15:40:03;;;;;;;;;;;;;;;;;;5030313;28;19935;-62
2021/10/07 15:45:06;;;;;;;;;;;;;;;;;;5038187;28;19929;-67
2021/10/07 15:47:33;;;;;;;;;;;;;;;;;;5038462;28;19964;-67
2021/10/07 15:50:00;;;;;;;;;;;;;;;;;;5034825;28;19933;-67
2021/10/07 15:52:27;;;;;;;;;;;;;;;;;;5037747;28;19955;-67
2021/10/07 15:54:54;;;;;;;;;;;;;;;;;;5041871;28;19947;-66
2021/10/07 15:57:22;;;;;;;;;;;;;;;;;;5039426;28;19933;-66
2021/10/07 15:59:49;;;;;;;;;;;;;;;;;;5033840;28;20870;-67
2021/10/07 16:02:16;;;;;;;;;;;;;;;;;;5038822;28;19928;-67
2021/10/07 16:04:43;;;;;;;;;;;;;;;;;;5039509;28;20423;-66
2021/10/07 16:07:10;;;;;;;;;;;;;;;;;;5040252;28;20019;-67
2021/10/07 16:09:37;;;;;;;;;;;;;;;;;;5044107;28;19935;-67
2021/10/07 16:12:04;;;;;;;;;;;;;;;;;;5049321;28;19928;-65
2021/10/07 16:14:31;;;;;;;;;;;;;;;;;;5044623;28;20040;-67
2021/10/07 16:16:58;;;;;;;;;;;;;;;;;;5046978;28;19980;-66
2021/10/07 16:19:25;;;;;;;;;;;;;;;;;;5047216;28;20296;-66
2021/10/07 16:21:54;;;;;;;;;;;;;;;;;;5042339;28;19929;-66
2021/10/07 16:24:21;;;;;;;;;;;;;;;;;;5041505;28;20024;-67
2021/10/07 16:26:47;;;;;;;;;;;;;;;;;;5045838;28;19925;-67
2021/10/07 16:29:14;;;;;;;;;;;;;;;;;;5035772;28;19931;-68
2021/10/07 16:31:41;;;;;;;;;;;;;;;;;;5048466;28;19983;-66
2021/10/07 16:34:09;;;;;;;;;;;;;;;;;;5044638;28;19935;-67
2021/10/07 16:36:36;;;;;;;;;;;;;;;;;;5047452;28;19925;-65
2021/10/07 16:39:03;;;;;;;;;;;;;;;;;;5047485;28;20332;-67
2021/10/07 16:41:30;;;;;;;;;;;;;;;;;;5047314;28;19924;-67
2021/10/07 16:43:57;;;;;;;;;;;;;;;;;;5046402;28;19928;-66
2021/10/07 16:46:24;;;;;;;;;;;;;;;;;;5047971;28;19932;-64
2021/10/07 16:48:51;;;;;;;;;;;;;;;;;;5044209;28;20016;-66